Main page
METAR-TAF:

METAR-TAF

Airports :

Brive–Dordogne Valley Airport

Brive-la-Gaillarde, France

latitude: 45-02-28N, longitude: 001-28-59E, elevation: 311 m

Current weather observation

The report was made 27 minutes ago, at 21:30 UTC
Wind 4 kt from the Northwest
Temperature 7°C
Humidity 100%
Pressure 1021 hPa
Visibility 10 km or more
no clouds below 1500 m and no cumulonimbus

METAR: LFSL 212130Z AUTO 31004KT CAVOK 07/07 Q1021

Time: 23:57 (21:57 UTC)

Forecast

The report was made 7 hours and 57 minutes ago, at 14:00 UTC
Forecast valid from 21 at 15 UTC to 21 at 24 UTC
Wind 3 kt from variable directions
Visibility 10 km or more
Scattered clouds at a height of 2600 ft
Temporary
from 21 at 15 UTC to 21 at 24 UTC
Visibility 10 km or more
no clouds below 1500 m and no cumulonimbus

TAF: LFSL 211400Z 2115/2124 VRB03KT 9999 SCT026 TEMPO 2115/2124 CAVOK

Weather observations and forecasts of more than 4000 airports (METAR and TAF reports).

The available stations are represented by yellow and red dots on the map.

Hover mouse over dot to see the name of the station.

Then click to see weather observations and forecasts.

To change the map : click on the green buttons with a black cross to zoom in, on the green button with a dash to zoom out, or on the green arrows for adjacent maps.


METAR-TAF: